GREENWICH - NJ NJ-MESONET current weather conditions

sailwx.info

Wind from 052

Air temperature 22.2° C
Dewpoint 21.1° C

Last reported at 2020-Jul-04 11:05 UTC.
Time now 2020-Jul-04 11:33 UTC

Location: N 39°27' W 075°23'.
View on Google Maps.

See reports from other nearby stations

  
Tides and Currents Weather Stations Pressure Air Temp Water Temp Dewpoint Dewpoint Depression Visibility Wind Speed Wind Dir Waves Ship Positions
date/time (UTC)wind fromknots sea level pressurealtimeterstation pressurevisibilityair tempwater tempwave heightnotes
2020-Jul-04 11:05 052 22.2
2020-Jul-04 11:00 063 2 gusting 5 22.2
2020-Jul-04 10:55 069 4 gusting 5 21.7
2020-Jul-04 10:50 020 21.7
2020-Jul-04 10:45 081 1 gusting 4 21.7
2020-Jul-04 10:40 074 2 gusting 4 21.7
2020-Jul-04 10:35 056 1 gusting 4 21.7
2020-Jul-04 10:30 092 3 gusting 4 21.7
2020-Jul-04 10:25 076 2 gusting 4 21.7
2020-Jul-04 10:20 098 21.7
2020-Jul-04 10:15 049 1 gusting 2 21.7
2020-Jul-04 10:10 036 21.7
2020-Jul-04 10:05 096 3 gusting 5 21.7
2020-Jul-04 10:00 069 0 gusting 2 21.7
2020-Jul-04 09:55 069 21.7
2020-Jul-04 09:50 072 21.7
2020-Jul-04 09:45 062 0 gusting 2 21.7
2020-Jul-04 09:40 039 1 gusting 2 21.7
2020-Jul-04 09:35 064 0 gusting 3 21.7
2020-Jul-04 09:30 058 0 gusting 3 21.7
2020-Jul-04 09:25 053 0 gusting 3 21.7
2020-Jul-04 09:20 049 3 gusting 4 21.7
2020-Jul-04 09:15 076 1 gusting 2 21.7
2020-Jul-04 09:10 081 0 gusting 2 21.7
2020-Jul-04 09:05 092 21.7
2020-Jul-04 09:00 090 1 gusting 3 21.7
2020-Jul-04 08:55 068 2 gusting 3 21.7
2020-Jul-04 08:50 074 0 gusting 4 21.7
2020-Jul-04 08:45 069 1 gusting 4 21.7
2020-Jul-04 08:40 068 0 gusting 4 21.7
2020-Jul-04 08:35 039 21.7
2020-Jul-04 08:30 052 21.7
2020-Jul-04 08:25 087 3 gusting 4 21.7
2020-Jul-04 08:20 049 0 gusting 3 21.7
2020-Jul-04 08:15 062 2 gusting 3 21.7
2020-Jul-04 08:10 061 21.7
2020-Jul-04 08:05 058 1 gusting 5 21.7
2020-Jul-04 08:00 038 1 gusting 4 21.7
2020-Jul-04 07:55 064 3 gusting 4 21.7
2020-Jul-04 07:50 068 3 gusting 4 21.7
2020-Jul-04 07:45 047 21.7
2020-Jul-04 07:40 045 0 gusting 3 21.7
2020-Jul-04 07:35 052 1 gusting 3 21.7
2020-Jul-04 07:30 063 0 gusting 4 21.7
2020-Jul-04 07:25 009 0 gusting 4 21.7
2020-Jul-04 07:20 039 2 gusting 4 21.7
2020-Jul-04 07:15 031 3 gusting 5 21.7
2020-Jul-04 07:10 032 1 gusting 5 21.7
2020-Jul-04 07:05 041 3 gusting 4 22.2
2020-Jul-04 07:00 046 1 gusting 3 21.7
2020-Jul-04 06:55 028 21.7
2020-Jul-04 06:50 026 22.2
2020-Jul-04 06:45 059 22.2
2020-Jul-04 06:40 059 22.2
2020-Jul-04 06:35 040 22.2
2020-Jul-04 06:30 066 22.2
2020-Jul-04 06:25 053 0 gusting 2 22.2
2020-Jul-04 06:20 052 1 gusting 3 22.2
2020-Jul-04 06:15 032 0 gusting 2 22.2
2020-Jul-04 06:10 047 22.2
2020-Jul-04 06:05 057 22.2
2020-Jul-04 06:00 069 0 gusting 2 22.2
2020-Jul-04 05:55 030 22.2
2020-Jul-04 05:50 044 22.2
2020-Jul-04 05:45 024 3 gusting 4 22.2
2020-Jul-04 05:40 022 22.8
2020-Jul-04 05:35 073 22.8
2020-Jul-04 05:30 078 22.8
2020-Jul-04 05:25 063 0 gusting 1 22.8
2020-Jul-04 05:20 042 22.8
2020-Jul-04 05:15 085 22.8
2020-Jul-04 05:10 085 22.8
2020-Jul-04 05:05 085 22.8
2020-Jul-04 05:00 085 22.8
2020-Jul-04 04:55 085 22.8
2020-Jul-04 04:50 085 0 gusting 1 22.8
2020-Jul-04 04:45 001 22.8
2020-Jul-04 04:40 22.8
2020-Jul-04 04:35 150 22.8
2020-Jul-04 04:30 136 22.2
2020-Jul-04 04:25 149 0 gusting 3 22.8
2020-Jul-04 04:20 157 22.2
2020-Jul-04 04:15 049 1 gusting 5 22.2
2020-Jul-04 04:10 096 2 gusting 4 22.8
2020-Jul-04 04:05 193 3 gusting 3 22.8
2020-Jul-04 04:00 062 2 gusting 2 22.8
2020-Jul-04 03:55 159 22.8
2020-Jul-04 03:50 147 22.2
2020-Jul-04 03:45 051 22.2
2020-Jul-04 03:40 083 0 gusting 2 22.2
2020-Jul-04 03:35 171 22.2
2020-Jul-04 03:30 012 22.2
2020-Jul-04 03:25 179 1 gusting 6 22.2
2020-Jul-04 03:20 301 5 gusting 12 22.2
2020-Jul-04 03:15 078 8 gusting 13 22.8
2020-Jul-04 03:10 074 8 gusting 12 23.3
2020-Jul-04 03:05 019 8 gusting 9 24.4
2020-Jul-04 03:00 132 6 gusting 6 26.7
2020-Jul-04 02:55 005 1 gusting 5 27.2
2020-Jul-04 02:50 068 1 gusting 5 27.2
2020-Jul-04 02:45 098 4 gusting 6 27.2
2020-Jul-04 02:40 002 2 gusting 6 27.2
2020-Jul-04 02:35 075 27.2
2020-Jul-04 02:30 355 1 gusting 4 27.2
2020-Jul-04 02:25 092 1 gusting 2 27.2
2020-Jul-04 02:20 049 0 gusting 2 27.2
2020-Jul-04 02:15 072 27.8
2020-Jul-04 02:10 082 0 gusting 3 27.8
2020-Jul-04 02:05 350 0 gusting 3 27.8
2020-Jul-04 02:00 056 27.8
2020-Jul-04 01:55 013 0 gusting 5 27.8
2020-Jul-04 01:50 008 5 gusting 6 27.2
2020-Jul-04 01:45 354 1 gusting 7 26.1
2020-Jul-04 01:40 194 25.6
2020-Jul-04 01:35 194 25.6
2020-Jul-04 01:30 194 25.6
2020-Jul-04 01:25 194 25.6
2020-Jul-04 01:20 194 26.1
2020-Jul-04 01:15 194 26.1
2020-Jul-04 01:10 194 26.1
2020-Jul-04 01:05 194 26.7
2020-Jul-04 01:00 194 26.7
2020-Jul-04 00:55 194 27.2
2020-Jul-04 00:50 194 27.2
2020-Jul-04 00:45 194 27.2
2020-Jul-04 00:40 194 27.8
2020-Jul-04 00:35 194 27.8
2020-Jul-04 00:30 194 27.8
2020-Jul-04 00:25 185 28.3
2020-Jul-04 00:20 185 28.3
2020-Jul-04 00:15 185 28.9
2020-Jul-04 00:10 185 29.4
2020-Jul-04 00:05 185 29.4
2020-Jul-04 00:00 185 30.0
2020-Jul-03 23:55 185 30.0
2020-Jul-03 23:50 185 30.6
2020-Jul-03 23:45 185 31.1
2020-Jul-03 23:40 185 31.7
2020-Jul-03 23:35 185 32.2
2020-Jul-03 23:30 185 32.2
2020-Jul-03 23:25 185 32.2
2020-Jul-03 23:20 245 32.8
2020-Jul-03 23:15 258 1 gusting 2 32.2
2020-Jul-03 23:10 273 0 gusting 3 32.8
2020-Jul-03 23:05 270 0 gusting 3 32.8
2020-Jul-03 23:00 258 0 gusting 3 32.8
2020-Jul-03 22:55 285 0 gusting 3 32.8
2020-Jul-03 22:50 266 1 gusting 3 32.8
2020-Jul-03 22:45 276 0 gusting 4 33.3
2020-Jul-03 22:40 274 2 gusting 4 33.3
2020-Jul-03 22:35 269 1 gusting 4 33.3
2020-Jul-03 22:30 276 2 gusting 4 33.3
2020-Jul-03 22:25 253 3 gusting 5 33.3
2020-Jul-03 22:20 251 3 gusting 4 33.9
2020-Jul-03 22:15 297 2 gusting 4 33.9
2020-Jul-03 22:10 282 3 gusting 4 34.4
2020-Jul-03 22:05 325 0 gusting 4 34.4
2020-Jul-03 22:00 308 1 gusting 6 34.4
2020-Jul-03 21:55 269 0 gusting 5 34.4
2020-Jul-03 21:50 287 2 gusting 4 34.4
2020-Jul-03 21:45 331 2 gusting 5 34.4
2020-Jul-03 21:40 348 3 gusting 4 35.0
2020-Jul-03 21:35 331 34.4
2020-Jul-03 21:30 030 3 gusting 6 34.4
2020-Jul-03 21:25 34.4
2020-Jul-03 21:20 290 4 gusting 5 34.4
2020-Jul-03 21:15 012 2 gusting 6 34.4
2020-Jul-03 21:10 350 3 gusting 4 34.4
2020-Jul-03 21:05 294 34.4
2020-Jul-03 21:00 331 3 gusting 5 34.4
2020-Jul-03 20:55 300 4 gusting 4 34.4
2020-Jul-03 20:50 331 34.4
2020-Jul-03 20:45 006 2 gusting 5 34.4
2020-Jul-03 20:40 303 0 gusting 6 34.4
2020-Jul-03 20:35 112 3 gusting 6 34.4
2020-Jul-03 20:30 34.4
2020-Jul-03 20:25 34.4
2020-Jul-03 20:20 062 2 gusting 7 34.4
2020-Jul-03 20:15 330 5 gusting 5 35.0
2020-Jul-03 20:10 032 1 gusting 5 34.4
2020-Jul-03 20:05 348 3 gusting 5 34.4
2020-Jul-03 20:00 321 3 gusting 5 34.4
2020-Jul-03 19:55 007 2 gusting 7 33.9
2020-Jul-03 19:50 335 6 gusting 6 33.9
2020-Jul-03 19:45 328 1 gusting 6 34.4
2020-Jul-03 19:40 315 4 gusting 11 33.9
2020-Jul-03 19:35 309 4 gusting 6 34.4
2020-Jul-03 19:30 304 0 gusting 7 34.4
2020-Jul-03 19:25 327 1 gusting 5 34.4
2020-Jul-03 19:20 307 4 gusting 8 33.9
2020-Jul-03 19:15 288 3 gusting 6 34.4
2020-Jul-03 19:10 277 4 gusting 8 33.9
2020-Jul-03 19:05 341 4 gusting 8 33.9
2020-Jul-03 19:00 343 3 gusting 10 33.9
2020-Jul-03 18:55 305 3 gusting 6 33.3
2020-Jul-03 18:50 263 5 gusting 5 32.8
2020-Jul-03 18:45 294 1 gusting 4 33.3
2020-Jul-03 18:40 343 2 gusting 5 33.3
2020-Jul-03 18:35 257 2 gusting 4 32.8
2020-Jul-03 18:30 262 3 gusting 4 32.2
2020-Jul-03 18:25 268 0 gusting 4 32.2
2020-Jul-03 18:20 296 3 gusting 6 32.2
2020-Jul-03 18:15 315 1 gusting 6 32.2
2020-Jul-03 18:10 302 4 gusting 6 32.2
2020-Jul-03 18:05 292 4 gusting 7 32.8
2020-Jul-03 18:00 325 5 gusting 8 33.3
2020-Jul-03 17:55 311 1 gusting 6 33.3
2020-Jul-03 17:50 311 0 gusting 5 33.3
2020-Jul-03 17:45 353 4 gusting 6 33.3
2020-Jul-03 17:40 239 1 gusting 4 33.3
2020-Jul-03 17:35 307 0 gusting 5 32.8
2020-Jul-03 17:30 288 32.8
2020-Jul-03 17:25 282 5 gusting 7 32.8
2020-Jul-03 17:20 325 3 gusting 5 32.8
2020-Jul-03 17:15 303 2 gusting 6 32.2
2020-Jul-03 17:10 285 2 gusting 5 32.2
2020-Jul-03 17:05 299 4 gusting 6 32.2
2020-Jul-03 17:00 291 2 gusting 4 32.2
2020-Jul-03 16:55 285 1 gusting 6 32.2
2020-Jul-03 16:50 326 4 gusting 5 32.8
2020-Jul-03 16:45 355 3 gusting 6 32.8
2020-Jul-03 16:40 326 2 gusting 7 32.2
2020-Jul-03 16:35 278 5 gusting 5 32.8
2020-Jul-03 16:30 355 2 gusting 4 32.2
2020-Jul-03 16:25 351 4 gusting 7 32.2
2020-Jul-03 16:20 354 4 gusting 7 32.2
2020-Jul-03 16:15 341 2 gusting 6 32.2
2020-Jul-03 16:10 321 3 gusting 6 32.2
2020-Jul-03 16:05 328 5 gusting 7 32.2
2020-Jul-03 16:00 317 2 gusting 2 32.8
2020-Jul-03 15:55 334 32.2
2020-Jul-03 15:50 302 6 gusting 6 32.2
2020-Jul-03 15:45 276 31.7
2020-Jul-03 15:40 080 4 gusting 5 31.7
2020-Jul-03 15:35 001 2 gusting 6 31.7
2020-Jul-03 15:30 342 2 gusting 4 31.7
2020-Jul-03 15:25 347 31.7
2020-Jul-03 15:20 31.1
2020-Jul-03 15:15 332 1 gusting 6 31.1
2020-Jul-03 15:10 286 3 gusting 6 31.7
2020-Jul-03 15:05 012 4 gusting 7 31.1
2020-Jul-03 15:00 331 3 gusting 8 30.6
2020-Jul-03 14:55 344 2 gusting 7 31.1
2020-Jul-03 14:50 009 4 gusting 6 31.1
2020-Jul-03 14:45 013 2 gusting 6 31.1
2020-Jul-03 14:40 301 1 gusting 6 31.1
2020-Jul-03 14:35 328 2 gusting 6 30.6
2020-Jul-03 14:30 300 2 gusting 6 30.6
2020-Jul-03 14:25 347 2 gusting 5 30.0
2020-Jul-03 14:20 009 3 gusting 6 30.6
2020-Jul-03 14:15 286 30.6
2020-Jul-03 14:10 30.0
2020-Jul-03 14:05 024 1 gusting 7 29.4
2020-Jul-03 14:00 018 2 gusting 6 30.0
2020-Jul-03 13:55 309 3 gusting 5 30.0
2020-Jul-03 13:50 312 5 gusting 7 29.4
2020-Jul-03 13:45 020 2 gusting 7 29.4
2020-Jul-03 13:40 320 2 gusting 5 29.4
2020-Jul-03 13:35 333 29.4
2020-Jul-03 13:30 345 2 gusting 6 28.9
2020-Jul-03 13:25 330 4 gusting 6 28.9
2020-Jul-03 13:20 275 4 gusting 6 28.9
2020-Jul-03 13:15 002 4 gusting 6 28.9
2020-Jul-03 13:10 319 2 gusting 8 28.3
2020-Jul-03 13:05 332 3 gusting 6 28.3
2020-Jul-03 13:00 337 28.3
2020-Jul-03 12:55 355 1 gusting 4 28.3
2020-Jul-03 12:50 349 0 gusting 4 27.8
2020-Jul-03 12:45 342 4 gusting 5 27.8
2020-Jul-03 12:40 292 1 gusting 4 27.2
2020-Jul-03 12:35 012 1 gusting 5 27.2
2020-Jul-03 12:30 345 6 gusting 6 27.2
2020-Jul-03 12:25 004 1 gusting 5 26.7
2020-Jul-03 12:20 345 1 gusting 6 26.7
2020-Jul-03 12:15 300 3 gusting 4 26.7
2020-Jul-03 12:10 052 1 gusting 4 26.1
2020-Jul-03 12:05 035 1 gusting 4 25.6
2020-Jul-03 12:00 343 0 gusting 5 25.6
2020-Jul-03 11:55 340 2 gusting 4 25.6
2020-Jul-03 11:50 304 1 gusting 4 25.0
2020-Jul-03 11:45 350 25.0
2020-Jul-03 11:40 336 24.4
2020-Jul-03 11:35 325 0 gusting 3 24.4
2020-Jul-03 11:30 309 24.4
2020-Jul-03 11:25 330 1 gusting 1 23.9
2020-Jul-03 11:20 219 23.9
2020-Jul-03 11:15 216 23.3
2020-Jul-03 11:10 216 23.3
2020-Jul-03 11:05 216 22.8
2020-Jul-03 11:00 216 22.8
2020-Jul-03 10:55 216 22.2
2020-Jul-03 10:50 216 21.7
2020-Jul-03 10:45 216 21.7
2020-Jul-03 10:40 216 21.1
2020-Jul-03 10:35 216 21.1
2020-Jul-03 10:30 216 21.1
2020-Jul-03 10:25 216 21.1
2020-Jul-03 10:20 216 20.6
2020-Jul-03 10:15 317 20.6
2020-Jul-03 10:10 280 20.6
2020-Jul-03 10:05 280 20.6
2020-Jul-03 10:00 280 20.6
2020-Jul-03 09:55 280 20.6
2020-Jul-03 09:50 280 20.6
2020-Jul-03 09:45 280 20.0
2020-Jul-03 09:40 280 20.0
2020-Jul-03 09:35 280 20.0
2020-Jul-03 09:30 280 20.0
2020-Jul-03 09:25 280 20.0
2020-Jul-03 09:20 280 20.0
2020-Jul-03 09:15 280 20.0
2020-Jul-03 09:10 280 20.0
2020-Jul-03 09:05 280 20.0
2020-Jul-03 09:00 280 20.0
2020-Jul-03 08:55 280 20.6
2020-Jul-03 08:50 280 20.6
2020-Jul-03 08:45 280 20.6
2020-Jul-03 08:40 280 20.6
2020-Jul-03 08:35 280 20.6
2020-Jul-03 08:30 280 20.6
2020-Jul-03 08:25 280 20.6
2020-Jul-03 08:20 280 20.6
2020-Jul-03 08:15 280 20.6
2020-Jul-03 08:10 280 20.6
2020-Jul-03 08:05 280 20.6
2020-Jul-03 08:00 280 20.6
2020-Jul-03 07:55 280 20.6
2020-Jul-03 07:50 280 21.1
2020-Jul-03 07:45 280 20.6
2020-Jul-03 07:40 280 20.6
2020-Jul-03 07:35 280 21.1
2020-Jul-03 07:30 280 21.1
2020-Jul-03 07:25 280 21.1
2020-Jul-03 07:20 280 21.1
2020-Jul-03 07:15 280 21.1
2020-Jul-03 07:10 280 21.1
2020-Jul-03 07:05 280 21.7
2020-Jul-03 07:00 280 21.7
2020-Jul-03 06:55 280 21.1
2020-Jul-03 06:50 280 21.7
2020-Jul-03 06:45 280 21.7
2020-Jul-03 06:40 280 21.7
2020-Jul-03 06:35 280 21.7
2020-Jul-03 06:30 280 21.7
2020-Jul-03 06:25 280 21.7
2020-Jul-03 06:20 280 21.7
2020-Jul-03 06:15 280 21.7
2020-Jul-03 06:10 280 21.7
2020-Jul-03 06:05 280 21.7
2020-Jul-03 06:00 280 22.2
2020-Jul-03 05:55 280 22.2
2020-Jul-03 05:50 280 22.2
2020-Jul-03 05:45 280 22.2
2020-Jul-03 05:40 280 22.2
2020-Jul-03 05:35 280 21.7
2020-Jul-03 05:30 280 21.7
2020-Jul-03 05:25 280 21.7
2020-Jul-03 05:20 280 21.7
2020-Jul-03 05:15 280 21.7
2020-Jul-03 05:10 280 22.2
2020-Jul-03 05:05 280 22.2
2020-Jul-03 05:00 280 22.2
2020-Jul-03 04:55 280 22.2
2020-Jul-03 04:50 280 22.2
2020-Jul-03 04:45 280 22.2
2020-Jul-03 04:40 280 22.2
2020-Jul-03 04:35 280 22.2
2020-Jul-03 04:30 280 22.8
2020-Jul-03 04:25 280 22.8
2020-Jul-03 04:20 280 22.8
2020-Jul-03 04:15 280 22.8
2020-Jul-03 04:10 280 22.8
2020-Jul-03 04:05 280 22.8
2020-Jul-03 04:00 280 22.8
2020-Jul-03 03:55 280 22.8
2020-Jul-03 03:50 280 22.8
2020-Jul-03 03:45 280 23.3
2020-Jul-03 03:40 280 23.3
2020-Jul-03 03:35 280 23.3
2020-Jul-03 03:30 280 23.9
2020-Jul-03 03:25 280 23.9
2020-Jul-03 03:20 280 23.9
2020-Jul-03 03:15 280 23.9
2020-Jul-03 03:10 280 23.9
2020-Jul-03 03:05 280 24.4
2020-Jul-03 03:00 280 23.9
2020-Jul-03 02:55 280 23.9
2020-Jul-03 02:50 280 24.4
2020-Jul-03 02:45 280 24.4
2020-Jul-03 02:40 280 24.4
2020-Jul-03 02:35 280 24.4
2020-Jul-03 02:30 280 24.4
2020-Jul-03 02:25 280 24.4
2020-Jul-03 02:20 280 24.4
2020-Jul-03 02:15 280 24.4
2020-Jul-03 02:10 280 25.0
2020-Jul-03 02:05 272 25.0
2020-Jul-03 02:00 272 25.0
2020-Jul-03 01:55 272 25.0
2020-Jul-03 01:50 272 25.0
2020-Jul-03 01:45 272 25.0
2020-Jul-03 01:40 272 25.0
2020-Jul-03 01:35 272 25.6
2020-Jul-03 01:30 269 25.6
2020-Jul-03 01:25 269 26.1
2020-Jul-03 01:20 269 26.1
2020-Jul-03 01:15 265 26.1
2020-Jul-03 01:10 268 0 gusting 2 26.1
2020-Jul-03 01:05 274 0 gusting 3 26.7
2020-Jul-03 01:00 255 26.7
2020-Jul-03 00:55 255 26.7
2020-Jul-03 00:50 271 26.7
2020-Jul-03 00:45 273 27.2
2020-Jul-03 00:40 273 1 gusting 1 27.2
2020-Jul-03 00:35 272 27.8
2020-Jul-03 00:30 288 27.8
2020-Jul-03 00:25 280 1 gusting 2 28.3
2020-Jul-03 00:20 287 28.3
2020-Jul-03 00:15 287 0 gusting 3 28.9
2020-Jul-03 00:10 289 1 gusting 3 28.9
2020-Jul-03 00:05 282 0 gusting 3 29.4
2020-Jul-03 00:00 272 29.4
2020-Jul-02 23:55 288 0 gusting 2 29.4
2020-Jul-02 23:50 302 0 gusting 4 30.0
2020-Jul-02 23:45 331 1 gusting 4 30.0
2020-Jul-02 23:40 300 30.0
2020-Jul-02 23:35 276 0 gusting 3 30.0
2020-Jul-02 23:30 288 0 gusting 3 30.6
2020-Jul-02 23:25 273 0 gusting 3 30.6
2020-Jul-02 23:20 263 0 gusting 4 30.6
2020-Jul-02 23:15 283 2 gusting 6 30.6
2020-Jul-02 23:10 298 3 gusting 5 31.1
2020-Jul-02 23:05 288 4 gusting 6 31.1
2020-Jul-02 23:00 290 2 gusting 4 31.1
2020-Jul-02 22:55 292 1 gusting 4 31.7
2020-Jul-02 22:50 283 2 gusting 4 31.7
2020-Jul-02 22:45 277 3 gusting 4 31.7
2020-Jul-02 22:40 308 1 gusting 4 31.7
2020-Jul-02 22:35 296 2 gusting 6 31.7
2020-Jul-02 22:30 309 4 gusting 5 31.7
2020-Jul-02 22:25 296 6 gusting 7 31.7
2020-Jul-02 22:20 304 3 gusting 8 31.7
2020-Jul-02 22:15 273 5 gusting 6 32.2
2020-Jul-02 22:10 248 4 gusting 6 32.2
2020-Jul-02 22:05 259 1 gusting 6 31.7
2020-Jul-02 22:00 306 4 gusting 8 32.2
2020-Jul-02 21:55 296 4 gusting 6 31.7
2020-Jul-02 21:50 289 6 gusting 6 32.2
2020-Jul-02 21:45 286 4 gusting 5 31.7
2020-Jul-02 21:40 256 2 gusting 6 31.7
2020-Jul-02 21:35 285 5 gusting 8 31.7
2020-Jul-02 21:30 253 4 gusting 4 31.7
2020-Jul-02 21:25 282 3 gusting 5 30.6
2020-Jul-02 21:20 260 1 gusting 6 30.6
2020-Jul-02 21:15 292 3 gusting 8 31.1
2020-Jul-02 21:10 278 5 gusting 6 31.7
2020-Jul-02 21:05 250 2 gusting 7 32.2
2020-Jul-02 21:00 292 4 gusting 6 32.2
2020-Jul-02 20:55 325 2 gusting 6 32.2
2020-Jul-02 20:50 328 4 gusting 6 32.2
2020-Jul-02 20:45 319 5 gusting 9 32.2
2020-Jul-02 20:40 333 5 gusting 7 32.2
2020-Jul-02 20:35 32.2
2020-Jul-02 20:30 320 4 gusting 7 32.2
2020-Jul-02 20:25 295 5 gusting 8 32.2
2020-Jul-02 20:20 302 4 gusting 9 32.2
2020-Jul-02 20:15 312 4 gusting 9 31.7
2020-Jul-02 20:10 304 3 gusting 6 32.2
2020-Jul-02 20:05 326 2 gusting 6 32.2
2020-Jul-02 20:00 320 4 gusting 8 31.7
2020-Jul-02 19:55 301 2 gusting 6 31.7
2020-Jul-02 19:50 295 3 gusting 7 31.7
2020-Jul-02 19:45 283 6 gusting 10 31.1
2020-Jul-02 19:40 249 4 gusting 8 31.7
2020-Jul-02 19:35 292 6 gusting 8 31.1
2020-Jul-02 19:30 331 5 gusting 7 31.7
2020-Jul-02 19:25 323 3 gusting 8 31.1
2020-Jul-02 19:20 321 3 gusting 6 31.1
2020-Jul-02 19:15 306 1 gusting 7 31.1
2020-Jul-02 19:10 028 0 gusting 6 31.1
2020-Jul-02 19:05 337 3 gusting 8 31.1
2020-Jul-02 19:00 278 4 gusting 12 30.6
2020-Jul-02 18:55 264 6 gusting 7 30.6
2020-Jul-02 18:50 257 4 gusting 7 31.1
2020-Jul-02 18:45 032 2 gusting 7 31.1
2020-Jul-02 18:40 041 6 gusting 6 31.1
2020-Jul-02 18:35 336 2 gusting 8 31.1
2020-Jul-02 18:30 312 3 gusting 6 30.6
2020-Jul-02 18:25 306 4 gusting 7 31.1
2020-Jul-02 18:20 238 3 gusting 7 30.6
2020-Jul-02 18:15 279 1 gusting 5 30.6
2020-Jul-02 18:10 322 3 gusting 4 30.6
2020-Jul-02 18:05 009 4 gusting 6 30.0
2020-Jul-02 18:00 30.0
2020-Jul-02 17:55 253 4 gusting 5 30.0
2020-Jul-02 17:50 269 3 gusting 5 30.0
2020-Jul-02 17:45 303 4 gusting 5 30.0
2020-Jul-02 17:40 324 1 gusting 7 30.0
2020-Jul-02 17:35 297 0 gusting 6 29.4
2020-Jul-02 17:30 031 4 gusting 10 30.0
2020-Jul-02 17:25 033 0 gusting 8 30.0
2020-Jul-02 17:20 050 3 gusting 6 30.0
2020-Jul-02 17:15 340 3 gusting 6 29.4
2020-Jul-02 17:10 056 3 gusting 7 28.9
2020-Jul-02 17:05 010 4 gusting 6 29.4
2020-Jul-02 17:00 009 4 gusting 8 29.4
2020-Jul-02 16:55 009 3 gusting 6 28.3
2020-Jul-02 16:50 328 4 gusting 7 28.9
2020-Jul-02 16:45 316 4 gusting 4 28.9
2020-Jul-02 16:40 009 0 gusting 6 29.4
2020-Jul-02 16:35 053 2 gusting 4 28.9
2020-Jul-02 16:30 007 2 gusting 6 28.3
2020-Jul-02 16:25 323 2 gusting 4 28.9
2020-Jul-02 16:20 034 3 gusting 4 28.3
2020-Jul-02 16:15 020 1 gusting 7 27.8
2020-Jul-02 16:10 003 5 gusting 6 27.8
2020-Jul-02 16:05 009 2 gusting 6 28.3
2020-Jul-02 16:00 28.3
2020-Jul-02 15:55 002 3 gusting 8 28.3
2020-Jul-02 15:50 089 0 gusting 4 28.3
2020-Jul-02 15:45 029 0 gusting 8 28.3
2020-Jul-02 15:40 006 2 gusting 5 27.8
2020-Jul-02 15:35 014 4 gusting 7 28.3
2020-Jul-02 15:30 012 4 gusting 6 28.3
2020-Jul-02 15:25 352 2 gusting 6 28.3
2020-Jul-02 15:20 335 1 gusting 6 27.8
2020-Jul-02 15:15 298 2 gusting 6 27.8
2020-Jul-02 15:10 015 5 gusting 5 27.8
2020-Jul-02 15:05 025 27.8
2020-Jul-02 15:00 020 27.8
2020-Jul-02 14:55 065 1 gusting 7 27.2
2020-Jul-02 14:50 041 27.8
2020-Jul-02 14:45 079 4 gusting 6 27.2
2020-Jul-02 14:40 025 0 gusting 6 27.2
2020-Jul-02 14:35 002 27.2
2020-Jul-02 14:30 096 5 gusting 5 26.7
2020-Jul-02 14:25 064 2 gusting 4 26.7
2020-Jul-02 14:20 336 2 gusting 5 26.7
2020-Jul-02 14:15 051 2 gusting 4 26.1
2020-Jul-02 14:10 012 26.1
2020-Jul-02 14:05 092 3 gusting 4 26.1
2020-Jul-02 14:00 001 3 gusting 5 25.6
2020-Jul-02 13:55 312 1 gusting 6 25.6
2020-Jul-02 13:50 031 4 gusting 5 25.6
2020-Jul-02 13:45 010 1 gusting 6 25.6
2020-Jul-02 13:40 029 0 gusting 5 25.0
2020-Jul-02 13:35 348 4 gusting 6 25.0
2020-Jul-02 13:30 338 3 gusting 7 25.0
2020-Jul-02 13:25 310 2 gusting 7 24.4
2020-Jul-02 13:20 037 4 gusting 6 24.4
2020-Jul-02 13:15 354 1 gusting 5 24.4
2020-Jul-02 13:10 301 3 gusting 9 24.4
2020-Jul-02 13:05 338 1 gusting 6 23.9
2020-Jul-02 13:00 001 4 gusting 6 23.9
2020-Jul-02 12:55 23.9
2020-Jul-02 12:50 049 1 gusting 6 23.9
2020-Jul-02 12:45 352 3 gusting 6 23.9
2020-Jul-02 12:40 015 23.3
2020-Jul-02 12:35 027 4 gusting 6 23.3
2020-Jul-02 12:30 058 3 gusting 5 23.3
2020-Jul-02 12:25 024 23.3
2020-Jul-02 12:20 047 0 gusting 4 22.8
2020-Jul-02 12:15 075 22.8
2020-Jul-02 12:10 354 1 gusting 5 22.2
2020-Jul-02 12:05 011 2 gusting 4 22.2
2020-Jul-02 12:00 353 3 gusting 4 22.2
2020-Jul-02 11:55 354 2 gusting 3 22.2
2020-Jul-02 11:50 041 1 gusting 4 21.7
2020-Jul-02 11:45 063 0 gusting 4 21.7
2020-Jul-02 11:40 021 1 gusting 3 21.7
2020-Jul-02 11:35 004 21.7
2020-Jul-02 11:30 069 1 gusting 1 21.7
2020-Jul-02 11:25 036 21.1
2020-Jul-02 11:20 301 0 gusting 4 21.1
2020-Jul-02 11:15 001 2 gusting 4 20.6
2020-Jul-02 11:10 030 0 gusting 4 20.6
2020-Jul-02 11:05 009 0 gusting 2 20.6
2020-Jul-02 11:00 015 1 gusting 4 20.6